createdAt,value
2018-02-09T00:02:08.406Z,39.60
2018-02-09T00:04:36.196Z,34.97
2018-02-09T00:07:02.505Z,35.43
2018-02-09T00:09:29.568Z,33.67
2018-02-09T00:11:55.863Z,31.97
2018-02-09T00:14:22.146Z,33.97
2018-02-09T00:16:49.225Z,36.93
2018-02-09T00:19:15.498Z,34.87
2018-02-09T00:21:41.830Z,30.40
2018-02-09T00:24:08.126Z,37.00
2018-02-09T00:26:34.408Z,36.47
2018-02-09T00:29:01.467Z,30.17
2018-02-09T00:31:28.485Z,33.80
2018-02-09T00:33:54.787Z,36.20
2018-02-09T00:36:21.056Z,35.20
2018-02-09T00:38:48.096Z,36.73
2018-02-09T00:41:14.392Z,35.90
2018-02-09T00:43:40.683Z,39.17
2018-02-09T00:46:07.700Z,42.13
2018-02-09T00:48:34.037Z,34.17
2018-02-09T00:51:01.805Z,34.83
2018-02-09T00:53:29.577Z,33.70
2018-02-09T00:55:56.617Z,35.47
2018-02-09T00:58:22.929Z,33.63
2018-02-09T01:00:49.234Z,33.27
2018-02-09T01:03:15.553Z,39.47
2018-02-09T01:05:41.887Z,36.97
2018-02-09T01:08:08.211Z,38.50
2018-02-09T01:10:34.511Z,37.80
2018-02-09T01:13:01.532Z,34.87
2018-02-09T01:15:27.871Z,38.67
2018-02-09T01:17:54.904Z,36.70
2018-02-09T01:20:21.205Z,36.83
2018-02-09T01:22:47.473Z,36.63
2018-02-09T01:25:13.786Z,38.10
2018-02-09T01:27:40.087Z,35.63
2018-02-09T01:30:06.407Z,36.20
2018-02-09T01:32:32.700Z,36.77
2018-02-09T01:34:59.003Z,37.77
2018-02-09T01:37:25.371Z,36.07
2018-02-09T01:39:52.395Z,35.50
2018-02-09T01:42:18.679Z,43.37
2018-02-09T01:44:44.951Z,41.30
2018-02-09T01:47:11.239Z,39.50
2018-02-09T01:49:37.536Z,42.90
2018-02-09T01:52:04.556Z,41.53
2018-02-09T01:54:30.870Z,37.87
2018-02-09T01:56:57.162Z,37.67
2018-02-09T01:59:23.443Z,38.67
2018-02-09T02:01:49.702Z,44.27
2018-02-09T02:04:16.718Z,41.67
2018-02-09T02:06:44.511Z,42.73
2018-02-09T02:09:11.539Z,40.50
2018-02-09T02:11:38.585Z,43.10
2018-02-09T02:14:05.631Z,41.70
2018-02-09T02:16:32.681Z,41.20
2018-02-09T02:18:59.699Z,39.03
2018-02-09T02:21:25.999Z,45.50
2018-02-09T02:23:52.276Z,43.70
2018-02-09T02:26:18.556Z,42.07
2018-02-09T02:28:44.834Z,45.20
2018-02-09T02:31:11.125Z,38.27
2018-02-09T02:33:37.395Z,41.87
2018-02-09T02:36:03.683Z,44.43
2018-02-09T02:38:29.953Z,43.40
2018-02-09T02:40:56.265Z,40.80
2018-02-09T02:43:22.542Z,42.00
2018-02-09T02:45:49.561Z,43.80
2018-02-09T02:48:15.848Z,44.73
2018-02-09T02:50:42.145Z,40.20
2018-02-09T02:53:09.424Z,47.70
2018-02-09T02:55:35.703Z,44.17
2018-02-09T02:58:01.992Z,42.93
2018-02-09T03:00:28.300Z,43.30
2018-02-09T03:02:54.577Z,45.37
2018-02-09T03:05:20.841Z,43.90
2018-02-09T03:07:47.140Z,43.90
2018-02-09T03:10:13.383Z,41.70
2018-02-09T03:12:40.438Z,42.40
2018-02-09T03:15:06.747Z,43.93
2018-02-09T03:17:33.020Z,44.67
2018-02-09T03:20:00.051Z,45.33
2018-02-09T03:22:26.355Z,37.33
2018-02-09T03:24:52.642Z,46.50
2018-02-09T03:27:18.941Z,43.10
2018-02-09T03:29:46.013Z,45.80
2018-02-09T03:32:12.311Z,42.07
2018-02-09T03:34:38.583Z,42.90
2018-02-09T03:37:04.870Z,40.33
2018-02-09T03:39:31.912Z,40.50
2018-02-09T03:41:58.187Z,40.03
2018-02-09T03:44:24.465Z,40.10
2018-02-09T03:46:50.778Z,45.43
2018-02-09T03:49:17.049Z,46.83
2018-02-09T03:51:44.067Z,43.07
2018-02-09T03:54:11.831Z,44.10
2018-02-09T03:56:39.582Z,46.77
2018-02-09T03:59:05.880Z,43.90
2018-02-09T04:01:32.146Z,43.40
2018-02-09T04:03:58.427Z,44.67
2018-02-09T04:06:24.708Z,45.13
2018-02-09T04:08:51.764Z,47.87
2018-02-09T04:11:18.028Z,49.23
2018-02-09T04:13:44.299Z,46.33
2018-02-09T04:16:10.571Z,46.57
2018-02-09T04:18:37.590Z,47.63
2018-02-09T04:21:03.880Z,49.47
2018-02-09T04:23:30.144Z,46.43
2018-02-09T04:25:56.419Z,47.70
2018-02-09T04:28:22.691Z,49.87
2018-02-09T04:30:48.955Z,46.00
2018-02-09T04:33:15.239Z,48.80
2018-02-09T04:35:41.500Z,52.90
2018-02-09T04:38:08.533Z,45.03
2018-02-09T04:40:34.787Z,45.07
2018-02-09T04:43:01.804Z,46.73
2018-02-09T04:45:28.107Z,45.53
2018-02-09T04:47:54.366Z,48.60
2018-02-09T04:50:20.649Z,46.20
2018-02-09T04:52:46.914Z,45.80
2018-02-09T04:55:13.225Z,44.70
2018-02-09T04:57:39.487Z,50.03
2018-02-09T05:00:05.785Z,52.23
2018-02-09T05:02:32.085Z,49.70
2018-02-09T05:04:58.380Z,48.63
2018-02-09T05:07:24.638Z,57.83
2018-02-09T05:09:51.694Z,46.00
2018-02-09T05:12:18.699Z,52.80
2018-02-09T05:14:46.457Z,49.13
2018-02-09T05:17:12.727Z,47.77
2018-02-09T05:19:39.030Z,43.00
2018-02-09T05:22:05.290Z,49.53
2018-02-09T05:24:31.604Z,47.97
2018-02-09T05:26:58.612Z,49.03
2018-02-09T05:29:24.876Z,49.27
2018-02-09T05:31:51.132Z,50.10
2018-02-09T05:34:18.176Z,50.97
2018-02-09T05:36:44.462Z,51.93
2018-02-09T05:39:12.222Z,49.10
2018-02-09T05:41:38.494Z,48.63
2018-02-09T05:44:04.768Z,52.20
2018-02-09T05:46:31.036Z,50.83
2018-02-09T05:48:58.049Z,49.47
2018-02-09T05:51:24.336Z,51.00
2018-02-09T05:53:50.598Z,52.00
2018-02-09T05:56:16.876Z,50.90
2018-02-09T05:58:44.252Z,48.77
2018-02-09T06:01:10.551Z,51.30
2018-02-09T06:03:37.567Z,54.43
2018-02-09T06:06:03.860Z,54.47
2018-02-09T06:08:30.172Z,56.40
2018-02-09T06:10:57.226Z,50.53
2018-02-09T06:13:23.511Z,54.33
2018-02-09T06:15:49.793Z,57.17
2018-02-09T06:18:16.101Z,56.53
2018-02-09T06:20:43.136Z,57.13
2018-02-09T06:23:10.155Z,56.50
2018-02-09T06:25:36.450Z,58.77
2018-02-09T06:28:02.742Z,58.83
2018-02-09T06:30:29.758Z,58.67
2018-02-09T06:32:56.039Z,63.77
2018-02-09T06:35:23.062Z,57.33
2018-02-09T06:37:50.099Z,57.10
2018-02-09T06:40:17.862Z,59.87
2018-02-09T06:42:44.889Z,60.40
2018-02-09T06:45:11.162Z,68.47
2018-02-09T06:47:38.174Z,65.67
2018-02-09T06:50:04.446Z,62.30
2018-02-09T06:52:31.443Z,69.90
2018-02-09T06:54:57.737Z,59.07
2018-02-09T06:57:23.998Z,58.77
2018-02-09T06:59:50.287Z,64.90
2018-02-09T07:02:16.575Z,65.90
2018-02-09T07:04:44.350Z,60.53
2018-02-09T07:07:11.373Z,69.20
2018-02-09T07:09:37.664Z,70.30
2018-02-09T07:12:03.930Z,66.40
2018-02-09T07:14:30.231Z,67.47
2018-02-09T07:16:56.507Z,75.40
2018-02-09T07:19:24.298Z,72.00
2018-02-09T07:21:51.295Z,66.50
2018-02-09T07:24:17.593Z,73.70
2018-02-09T07:26:43.854Z,73.03
2018-02-09T07:29:10.181Z,68.07
2018-02-09T07:31:37.951Z,71.03
2018-02-09T07:34:04.211Z,66.40
2018-02-09T07:36:31.234Z,72.10
2018-02-09T07:38:58.292Z,72.63
2018-02-09T07:41:25.314Z,86.00
2018-02-09T07:43:51.587Z,76.80
2018-02-09T07:46:18.616Z,72.20
2018-02-09T07:48:46.502Z,72.13
2018-02-09T07:51:13.508Z,69.70
2018-02-09T07:53:39.803Z,75.60
2018-02-09T07:56:06.089Z,83.73
2018-02-09T07:58:32.361Z,74.50
2018-02-09T08:00:58.656Z,77.10
2018-02-09T08:03:25.667Z,79.87
2018-02-09T08:05:51.961Z,76.97
2018-02-09T08:08:18.242Z,80.80
2018-02-09T08:10:44.531Z,77.70
2018-02-09T08:13:10.803Z,82.77
2018-02-09T08:15:37.087Z,79.97
2018-02-09T08:18:03.375Z,80.43
2018-02-09T08:20:30.429Z,80.97
2018-02-09T08:22:57.437Z,83.63
2018-02-09T08:25:23.703Z,76.57
2018-02-09T08:27:50.707Z,86.20
2018-02-09T08:30:16.996Z,79.87
2018-02-09T08:32:44.005Z,82.30
2018-02-09T08:35:10.266Z,83.67
2018-02-09T08:37:37.298Z,76.53
2018-02-09T08:40:04.304Z,79.77
2018-02-09T08:42:30.576Z,81.83
2018-02-09T08:44:57.603Z,81.13
2018-02-09T08:47:24.603Z,80.97
2018-02-09T08:49:50.864Z,81.83
2018-02-09T08:52:17.137Z,83.30
2018-02-09T08:54:44.155Z,85.03
2018-02-09T08:57:10.470Z,86.73
2018-02-09T08:59:36.728Z,84.80
2018-02-09T09:02:03.012Z,82.60
2018-02-09T09:04:29.278Z,87.30
2018-02-09T09:06:55.710Z,82.90
2018-02-09T09:09:22.149Z,89.10
2018-02-09T09:11:49.199Z,92.63
2018-02-09T09:14:15.515Z,88.73
2018-02-09T09:16:41.782Z,97.03
2018-02-09T09:19:08.096Z,95.80
2018-02-09T09:21:35.119Z,94.33
2018-02-09T09:24:01.416Z,95.60
2018-02-09T09:26:27.708Z,99.77
2018-02-09T09:28:54.722Z,91.90
2018-02-09T09:31:20.987Z,87.63
2018-02-09T09:33:47.284Z,97.47
2018-02-09T09:36:13.578Z,91.90
2018-02-09T09:38:39.857Z,96.33
2018-02-09T09:41:06.916Z,87.63
2018-02-09T09:43:33.951Z,89.13
2018-02-09T09:46:01.002Z,95.23
2018-02-09T09:48:27.312Z,95.17
2018-02-09T09:50:55.423Z,88.07
2018-02-09T09:53:22.602Z,97.77
2018-02-09T09:55:50.309Z,95.53
2018-02-09T09:58:16.579Z,99.53
2018-02-09T10:00:42.872Z,90.03
2018-02-09T10:03:09.130Z,91.73
2018-02-09T10:05:35.415Z,94.53
2018-02-09T10:08:01.696Z,90.13
2018-02-09T10:10:27.970Z,99.37
2018-02-09T10:12:55.037Z,95.43
2018-02-09T10:15:22.056Z,90.67
2018-02-09T10:17:48.336Z,84.23
2018-02-09T10:20:14.606Z,89.47
2018-02-09T10:22:40.928Z,101.60
2018-02-09T10:25:07.211Z,91.67
2018-02-09T10:27:33.527Z,90.00
2018-02-09T10:30:00.581Z,88.03
2018-02-09T10:32:27.612Z,88.23
2018-02-09T10:34:54.646Z,91.90
2018-02-09T10:37:20.910Z,91.10
2018-02-09T10:39:47.923Z,86.03
2018-02-09T10:42:14.253Z,88.43
2018-02-09T10:44:40.547Z,89.13
2018-02-09T10:47:06.868Z,79.60
2018-02-09T10:49:33.135Z,89.73
2018-02-09T10:51:59.403Z,91.43
2018-02-09T10:54:26.733Z,91.10
2018-02-09T10:56:53.767Z,86.27
2018-02-09T10:59:20.035Z,97.30
2018-02-09T11:01:46.337Z,88.67
2018-02-09T11:04:12.650Z,90.33
2018-02-09T11:06:38.937Z,92.10
2018-02-09T11:09:05.279Z,93.23
2018-02-09T11:11:31.590Z,89.00
2018-02-09T11:13:57.897Z,88.73
2018-02-09T11:16:24.926Z,86.53
2018-02-09T11:18:51.954Z,85.73
2018-02-09T11:21:18.251Z,83.63
2018-02-09T11:23:44.576Z,90.50
2018-02-09T11:26:10.893Z,83.20
2018-02-09T11:28:37.955Z,81.03
2018-02-09T11:31:04.226Z,83.17
2018-02-09T11:33:30.546Z,84.30
2018-02-09T11:35:56.809Z,85.17
2018-02-09T11:38:23.120Z,82.50
2018-02-09T11:40:49.387Z,83.17
2018-02-09T11:43:16.404Z,87.60
2018-02-09T11:45:42.700Z,83.07
2018-02-09T11:48:08.992Z,79.80
2018-02-09T11:50:36.024Z,82.10
2018-02-09T11:53:03.032Z,81.30
2018-02-09T11:55:29.327Z,86.40
2018-02-09T11:57:55.595Z,85.23
2018-02-09T12:00:21.905Z,79.77
2018-02-09T12:02:48.302Z,85.30
2018-02-09T12:05:15.330Z,83.50
2018-02-09T12:07:41.691Z,86.67
2018-02-09T12:10:07.985Z,78.93
2018-02-09T12:12:35.005Z,80.70
2018-02-09T12:15:01.302Z,79.70
2018-02-09T12:17:28.297Z,83.60
2018-02-09T12:19:54.584Z,80.10
2018-02-09T12:22:20.851Z,82.77
2018-02-09T12:24:47.151Z,84.90
2018-02-09T12:27:13.431Z,92.17
2018-02-09T12:29:39.695Z,83.33
2018-02-09T12:32:05.991Z,90.77
2018-02-09T12:34:33.009Z,90.63
2018-02-09T12:36:59.285Z,84.33
2018-02-09T12:39:26.321Z,89.73
2018-02-09T12:41:53.361Z,89.43
2018-02-09T12:44:19.624Z,86.23
2018-02-09T12:46:45.944Z,89.20
2018-02-09T12:49:13.075Z,90.80
2018-02-09T12:51:40.190Z,85.77
2018-02-09T12:54:06.516Z,90.37
2018-02-09T12:56:32.808Z,86.47
2018-02-09T12:58:59.090Z,85.90
2018-02-09T13:01:25.358Z,90.13
2018-02-09T13:03:51.644Z,82.20
2018-02-09T13:06:17.929Z,81.10
2018-02-09T13:08:44.223Z,85.07
2018-02-09T13:11:10.523Z,83.50
2018-02-09T13:13:36.821Z,83.10
2018-02-09T13:16:03.108Z,83.23
2018-02-09T13:18:41.783Z,81.17
2018-02-09T13:21:08.776Z,80.77
2018-02-09T13:24:00.816Z,87.80
2018-02-09T13:26:27.069Z,82.00
2018-02-09T13:28:58.294Z,85.37
2018-02-09T13:31:25.325Z,82.10
2018-02-09T13:33:51.633Z,86.17
2018-02-09T13:36:17.929Z,88.27
2018-02-09T13:38:44.250Z,83.17
2018-02-09T13:41:10.525Z,84.43
2018-02-09T13:43:36.879Z,83.60
2018-02-09T13:46:03.902Z,82.87
2018-02-09T13:48:30.192Z,80.20
2018-02-09T13:50:56.507Z,86.03
2018-02-09T13:53:22.804Z,80.97
2018-02-09T13:55:49.070Z,86.43
2018-02-09T13:58:15.377Z,80.03
2018-02-09T14:00:42.469Z,77.67
2018-02-09T14:03:08.823Z,82.67
2018-02-09T14:05:35.122Z,85.57
2018-02-09T14:08:01.416Z,84.93
2018-02-09T14:10:28.452Z,84.73
2018-02-09T14:12:55.483Z,78.77
2018-02-09T14:15:21.779Z,88.80
2018-02-09T14:17:48.072Z,85.10
2018-02-09T14:20:15.095Z,77.40
2018-02-09T14:22:41.388Z,82.80
2018-02-09T14:25:07.663Z,81.70
2018-02-09T14:27:33.949Z,84.00
2018-02-09T14:30:00.223Z,81.43
2018-02-09T14:32:26.488Z,80.40
2018-02-09T14:34:52.812Z,77.77
2018-02-09T14:37:19.840Z,83.13
2018-02-09T14:39:46.880Z,86.87
2018-02-09T14:42:13.154Z,85.87
2018-02-09T14:44:39.480Z,81.60
2018-02-09T14:47:05.758Z,83.07
2018-02-09T14:49:32.048Z,82.73
2018-02-09T14:51:58.411Z,87.93
2018-02-09T14:54:24.667Z,86.63
2018-02-09T14:56:51.686Z,85.20
2018-02-09T14:59:17.964Z,85.30
2018-02-09T15:01:44.250Z,82.37
2018-02-09T15:04:10.527Z,85.73
2018-02-09T15:06:36.797Z,84.67
2018-02-09T15:09:03.100Z,81.97
2018-02-09T15:11:29.396Z,83.77
2018-02-09T15:13:55.702Z,85.80
2018-02-09T15:16:21.980Z,86.07
2018-02-09T15:18:48.242Z,82.73
2018-02-09T15:21:14.527Z,89.33
2018-02-09T15:23:40.798Z,81.33
2018-02-09T15:26:07.100Z,82.53
2018-02-09T15:28:33.402Z,87.37
2018-02-09T15:31:00.434Z,84.40
2018-02-09T15:33:27.450Z,83.40
2018-02-09T15:35:53.772Z,83.43
2018-02-09T15:38:20.051Z,89.97
2018-02-09T15:40:47.055Z,85.23
2018-02-09T15:43:13.352Z,88.57
2018-02-09T15:45:39.652Z,87.23
2018-02-09T15:48:05.954Z,86.47
2018-02-09T15:50:32.316Z,85.37
2018-02-09T15:52:59.353Z,82.27
2018-02-09T15:55:25.615Z,88.50
2018-02-09T15:57:51.901Z,86.00
2018-02-09T16:00:18.175Z,89.33
2018-02-09T16:02:44.450Z,81.80
2018-02-09T16:05:10.742Z,90.43
2018-02-09T16:07:36.999Z,91.23
2018-02-09T16:10:03.318Z,87.97
2018-02-09T16:12:29.599Z,92.70
2018-02-09T16:14:56.631Z,90.50
2018-02-09T16:17:23.652Z,87.67
2018-02-09T16:19:49.957Z,88.40
2018-02-09T16:22:16.239Z,89.47
2018-02-09T16:24:43.469Z,86.07
2018-02-09T16:27:09.776Z,86.23
2018-02-09T16:29:36.075Z,89.80
2018-02-09T16:32:03.153Z,85.87
2018-02-09T16:34:29.428Z,87.87
2018-02-09T16:36:56.432Z,92.90
2018-02-09T16:39:22.711Z,85.17
2018-02-09T16:41:49.733Z,87.00
2018-02-09T16:44:16.822Z,93.83
2018-02-09T16:46:43.191Z,88.10
2018-02-09T16:49:09.475Z,89.20
2018-02-09T16:51:35.777Z,91.03
2018-02-09T16:54:02.672Z,88.10
2018-02-09T16:56:29.269Z,88.13
2018-02-09T16:58:56.275Z,90.00
2018-02-09T17:01:22.581Z,87.63
2018-02-09T17:03:48.887Z,91.50
2018-02-09T17:06:15.988Z,84.67
2018-02-09T17:08:43.054Z,82.33
2018-02-09T17:11:09.339Z,91.17
2018-02-09T17:13:35.623Z,98.70
2018-02-09T17:16:02.676Z,94.87
2018-02-09T17:18:28.998Z,91.37
2018-02-09T17:20:56.024Z,89.90
2018-02-09T17:23:22.290Z,87.23
2018-02-09T17:25:49.315Z,87.00
2018-02-09T17:28:15.585Z,91.73
2018-02-09T17:30:41.884Z,87.93
2018-02-09T17:33:08.487Z,85.70
2018-02-09T17:35:34.769Z,83.57
2018-02-09T17:38:01.810Z,83.07
2018-02-09T17:40:28.159Z,100.33
2018-02-09T17:42:54.456Z,87.60
2018-02-09T17:45:21.566Z,86.60
2018-02-09T17:47:47.847Z,88.30
2018-02-09T17:50:14.863Z,89.37
2018-02-09T17:52:41.151Z,90.77
2018-02-09T17:55:07.408Z,87.23
2018-02-09T17:57:33.721Z,87.00
2018-02-09T18:00:00.051Z,85.97
2018-02-09T18:02:27.089Z,93.90
2018-02-09T18:04:53.335Z,89.07
2018-02-09T18:07:19.629Z,93.80
2018-02-09T18:09:45.943Z,90.67
2018-02-09T18:12:12.258Z,89.53
2018-02-09T18:14:38.544Z,91.87
2018-02-09T18:17:04.840Z,91.97
2018-02-09T18:19:31.123Z,89.70
2018-02-09T18:21:57.398Z,91.30
2018-02-09T18:24:24.695Z,89.60
2018-02-09T18:26:50.974Z,94.23
2018-02-09T18:29:18.000Z,89.50
2018-02-09T18:31:44.272Z,86.00
2018-02-09T18:34:10.559Z,86.27
2018-02-09T18:36:36.849Z,90.33
2018-02-09T18:39:03.165Z,86.27
2018-02-09T18:41:29.440Z,84.47
2018-02-09T18:43:55.736Z,90.90
2018-02-09T18:46:22.052Z,92.87
2018-02-09T18:48:48.415Z,93.97
2018-02-09T18:51:14.775Z,91.57
2018-02-09T18:53:41.142Z,84.00
2018-02-09T18:56:07.462Z,92.33
2018-02-09T18:58:33.747Z,87.37
2018-02-09T19:01:00.057Z,88.10
2018-02-09T19:03:26.369Z,90.47
2018-02-09T19:05:52.657Z,83.70
2018-02-09T19:08:19.690Z,93.80
2018-02-09T19:10:46.777Z,92.60
2018-02-09T19:13:13.069Z,88.73
2018-02-09T19:15:40.129Z,83.93
2018-02-09T19:18:07.228Z,87.13
2018-02-09T19:20:33.521Z,88.17
2018-02-09T19:23:00.620Z,94.90
2018-02-09T19:25:26.906Z,91.57
2018-02-09T19:27:53.913Z,93.83
2018-02-09T19:30:20.209Z,87.60
2018-02-09T19:32:46.495Z,88.73
2018-02-09T19:35:13.542Z,81.60
2018-02-09T19:37:40.590Z,91.00
2018-02-09T19:40:07.638Z,94.30
2018-02-09T19:42:33.956Z,94.73
2018-02-09T19:45:00.260Z,85.40
2018-02-09T19:47:26.567Z,84.67
2018-02-09T19:49:52.876Z,87.47
2018-02-09T19:52:19.148Z,95.00
2018-02-09T19:54:45.407Z,90.03
2018-02-09T19:57:12.415Z,94.90
2018-02-09T19:59:38.748Z,90.10
2018-02-09T20:02:05.013Z,92.70
2018-02-09T20:04:31.340Z,92.10
2018-02-09T20:06:57.607Z,97.87
2018-02-09T20:09:23.849Z,89.50
2018-02-09T20:11:50.116Z,97.37
2018-02-09T20:14:16.398Z,92.40
2018-02-09T20:16:44.228Z,89.97
2018-02-09T20:19:11.246Z,89.93
2018-02-09T20:21:37.844Z,92.30
2018-02-09T20:24:04.108Z,87.23
2018-02-09T20:26:30.395Z,91.53
2018-02-09T20:28:56.651Z,92.27
2018-02-09T20:31:22.949Z,91.03
2018-02-09T20:33:49.209Z,100.90
2018-02-09T20:36:15.476Z,90.23
2018-02-09T20:38:42.506Z,86.67
2018-02-09T20:41:08.767Z,92.57
2018-02-09T20:43:35.101Z,91.40
2018-02-09T20:46:02.137Z,96.10
2018-02-09T20:48:29.176Z,96.03
2018-02-09T20:50:56.196Z,89.90
2018-02-09T20:53:24.001Z,100.67
2018-02-09T20:55:51.004Z,91.53
2018-02-09T20:58:17.282Z,96.77
2018-02-09T21:00:44.295Z,90.63
2018-02-09T21:03:10.587Z,93.73
2018-02-09T21:05:36.852Z,91.93
2018-02-09T21:08:03.198Z,90.33
2018-02-09T21:10:30.386Z,96.60
2018-02-09T21:12:56.653Z,90.73
2018-02-09T21:15:22.914Z,94.03
2018-02-09T21:17:49.971Z,94.37
2018-02-09T21:20:16.449Z,95.27
2018-02-09T21:22:42.736Z,96.80
2018-02-09T21:25:09.737Z,94.53
2018-02-09T21:27:36.095Z,97.90
2018-02-09T21:30:02.402Z,93.87
2018-02-09T21:32:28.718Z,96.47
2018-02-09T21:34:55.017Z,90.83
2018-02-09T21:37:21.279Z,94.40
2018-02-09T21:39:47.571Z,98.40
2018-02-09T21:42:13.888Z,104.20
2018-02-09T21:44:40.174Z,97.80
2018-02-09T21:47:06.432Z,96.63
2018-02-09T21:49:32.728Z,99.07
2018-02-09T21:51:59.006Z,96.30
2018-02-09T21:54:26.073Z,99.50
2018-02-09T21:56:52.343Z,100.27
2018-02-09T21:59:18.613Z,96.43
2018-02-09T22:01:45.660Z,97.30
2018-02-09T22:04:12.056Z,97.47
2018-02-09T22:06:38.307Z,95.97
2018-02-09T22:09:05.340Z,96.90
2018-02-09T22:11:31.612Z,92.43
2018-02-09T22:13:57.882Z,96.47
2018-02-09T22:16:24.172Z,103.90
2018-02-09T22:18:50.454Z,92.83
2018-02-09T22:21:17.517Z,98.70
2018-02-09T22:23:44.550Z,100.90
2018-02-09T22:26:10.832Z,100.00
2018-02-09T22:28:37.127Z,96.60
2018-02-09T22:31:04.143Z,93.47
2018-02-09T22:33:30.406Z,102.67
2018-02-09T22:35:57.417Z,99.90
2018-02-09T22:38:23.693Z,96.40
2018-02-09T22:40:50.009Z,97.90
2018-02-09T22:43:17.013Z,95.00
2018-02-09T22:45:43.311Z,100.33
2018-02-09T22:48:09.572Z,99.17
2018-02-09T22:50:35.856Z,96.13
2018-02-09T22:53:02.898Z,104.00
2018-02-09T22:55:29.913Z,100.40
2018-02-09T22:57:56.147Z,103.70
2018-02-09T23:00:22.427Z,96.60
2018-02-09T23:02:48.694Z,101.27
2018-02-09T23:05:14.956Z,106.13
2018-02-09T23:07:41.989Z,103.57
2018-02-09T23:10:09.026Z,106.57
2018-02-09T23:12:36.060Z,106.50
2018-02-09T23:15:02.353Z,97.17
2018-02-09T23:17:28.631Z,106.67
2018-02-09T23:19:55.669Z,101.00
2018-02-09T23:22:21.977Z,95.77
2018-02-09T23:24:48.243Z,103.73
2018-02-09T23:27:14.505Z,94.87
2018-02-09T23:29:40.785Z,99.33
2018-02-09T23:32:07.052Z,100.03
2018-02-09T23:34:34.077Z,90.67
2018-02-09T23:37:01.097Z,101.97
2018-02-09T23:39:27.372Z,107.57
2018-02-09T23:41:54.542Z,103.97
2018-02-09T23:44:20.810Z,104.33
2018-02-09T23:46:47.098Z,101.20
2018-02-09T23:49:13.353Z,100.87
2018-02-09T23:51:39.619Z,103.00
2018-02-09T23:54:05.866Z,100.13
2018-02-09T23:56:32.143Z,105.10
2018-02-09T23:58:58.401Z,104.17
